Weather at C.C. Strip

Public forecast

Using degrees Celsius for public forecast. Weather courtesy of forecast.io.

Closest aviation weather report (METAR) to C.C. Strip

Report is more than 6 hours old.

Closest report is Robert Gabriel Mugabe International Airport, 54.3 nm (100.7 km) ESE. Retrieved 2020/11/14 07:00 UTC (13 days ago):

FVRG 140700Z 10005KT 050V160 9999 FEW020 22/13 Q1023 NOSIG

Closest aviation forecast (TAF) to C.C. Strip

Forecast is more than 12 hours old.

Closest forecast is Robert Gabriel Mugabe International Airport, 54.3 nm (100.7 km) ESE. Retrieved 2020/11/11 12:00 UTC (15 days ago):

TAF FVRG 111000Z 1112/1218 14010KT 9999 BKN060TCU PROB30 TEMPO 1112/1118 8000 -TSRA FEW060CB BKN080 BECMG 1120/1122 9999 -RA TEMPO 1204/1207 12011KT 9999 -RA BKN010 BKN080 BECMG 1208/1210 FEW040CB BKN045 PROB30 TEMPO 1212/1218 8000 -TSRA FEW045CB BKN080